sensor_id;sensor_type;location;lat;lon;timestamp;temperature;humidity
66708;DHT22;53622;0.000;0.000;2023-04-01T00:00:17;21.20;53.00
66708;DHT22;53622;0.000;0.000;2023-04-01T00:02:48;21.30;53.00
66708;DHT22;53622;0.000;0.000;2023-04-01T00:05:19;21.20;52.90
66708;DHT22;53622;0.000;0.000;2023-04-01T00:07:48;21.20;52.90
66708;DHT22;53622;0.000;0.000;2023-04-01T00:10:18;21.20;52.90
66708;DHT22;53622;0.000;0.000;2023-04-01T00:12:48;21.20;52.80
66708;DHT22;53622;0.000;0.000;2023-04-01T00:15:17;21.20;52.80
66708;DHT22;53622;0.000;0.000;2023-04-01T00:17:46;21.20;52.90
66708;DHT22;53622;0.000;0.000;2023-04-01T00:20:17;21.20;52.80
66708;DHT22;53622;0.000;0.000;2023-04-01T00:22:47;21.20;52.80
66708;DHT22;53622;0.000;0.000;2023-04-01T00:25:16;21.20;52.80
66708;DHT22;53622;0.000;0.000;2023-04-01T00:27:46;21.20;52.80
66708;DHT22;53622;0.000;0.000;2023-04-01T00:30:15;21.20;52.80
66708;DHT22;53622;0.000;0.000;2023-04-01T00:32:44;21.20;52.80
66708;DHT22;53622;0.000;0.000;2023-04-01T00:35:14;21.20;52.80
66708;DHT22;53622;0.000;0.000;2023-04-01T00:37:44;21.20;52.80
66708;DHT22;53622;0.000;0.000;2023-04-01T00:40:30;21.20;52.80
66708;DHT22;53622;0.000;0.000;2023-04-01T00:42:59;21.20;52.80
66708;DHT22;53622;0.000;0.000;2023-04-01T00:45:34;21.20;52.70
66708;DHT22;53622;0.000;0.000;2023-04-01T00:48:07;21.20;52.70
66708;DHT22;53622;0.000;0.000;2023-04-01T00:50:39;21.10;53.30
66708;DHT22;53622;0.000;0.000;2023-04-01T00:53:11;21.10;52.60
66708;DHT22;53622;0.000;0.000;2023-04-01T00:55:45;21.10;52.70
66708;DHT22;53622;0.000;0.000;2023-04-01T00:58:21;21.10;52.60
66708;DHT22;53622;0.000;0.000;2023-04-01T01:00:54;21.10;52.60
66708;DHT22;53622;0.000;0.000;2023-04-01T01:03:23;21.10;52.70
66708;DHT22;53622;0.000;0.000;2023-04-01T01:06:18;21.10;52.60
66708;DHT22;53622;0.000;0.000;2023-04-01T01:09:10;21.10;52.60
66708;DHT22;53622;0.000;0.000;2023-04-01T01:11:43;21.10;52.60
66708;DHT22;53622;0.000;0.000;2023-04-01T01:14:28;21.10;52.60
66708;DHT22;53622;0.000;0.000;2023-04-01T01:17:05;21.10;52.60
66708;DHT22;53622;0.000;0.000;2023-04-01T01:26:00;21.00;52.50
66708;DHT22;53622;0.000;0.000;2023-04-01T01:28:47;21.00;52.60
66708;DHT22;53622;0.000;0.000;2023-04-01T01:31:24;21.00;52.50
66708;DHT22;53622;0.000;0.000;2023-04-01T01:34:10;21.00;52.50
66708;DHT22;53622;0.000;0.000;2023-04-01T01:36:45;21.00;52.50
66708;DHT22;53622;0.000;0.000;2023-04-01T01:39:19;21.00;52.50
66708;DHT22;53622;0.000;0.000;2023-04-01T01:41:49;21.00;52.50
66708;DHT22;53622;0.000;0.000;2023-04-01T01:44:20;21.00;52.50
66708;DHT22;53622;0.000;0.000;2023-04-01T01:46:50;21.00;52.50
66708;DHT22;53622;0.000;0.000;2023-04-01T01:49:20;21.00;52.40
66708;DHT22;53622;0.000;0.000;2023-04-01T01:51:51;21.00;52.50
66708;DHT22;53622;0.000;0.000;2023-04-01T01:54:20;20.90;52.40
66708;DHT22;53622;0.000;0.000;2023-04-01T01:56:58;20.90;53.00
66708;DHT22;53622;0.000;0.000;2023-04-01T01:59:29;20.90;52.40
66708;DHT22;53622;0.000;0.000;2023-04-01T02:01:59;20.90;52.40
66708;DHT22;53622;0.000;0.000;2023-04-01T02:04:36;20.90;52.40
66708;DHT22;53622;0.000;0.000;2023-04-01T02:07:10;20.90;52.40
66708;DHT22;53622;0.000;0.000;2023-04-01T02:09:41;20.90;52.40
66708;DHT22;53622;0.000;0.000;2023-04-01T02:12:13;20.90;52.40
66708;DHT22;53622;0.000;0.000;2023-04-01T02:14:47;20.90;52.40
66708;DHT22;53622;0.000;0.000;2023-04-01T02:17:19;20.90;52.40
66708;DHT22;53622;0.000;0.000;2023-04-01T02:19:53;20.90;52.40
66708;DHT22;53622;0.000;0.000;2023-04-01T02:22:28;20.90;52.30
66708;DHT22;53622;0.000;0.000;2023-04-01T02:25:03;20.90;52.40
66708;DHT22;53622;0.000;0.000;2023-04-01T02:27:33;20.90;52.30
66708;DHT22;53622;0.000;0.000;2023-04-01T02:30:03;20.90;52.30
66708;DHT22;53622;0.000;0.000;2023-04-01T02:32:34;20.90;52.40
66708;DHT22;53622;0.000;0.000;2023-04-01T02:35:07;20.90;52.40
66708;DHT22;53622;0.000;0.000;2023-04-01T02:37:40;20.90;52.30
66708;DHT22;53622;0.000;0.000;2023-04-01T02:40:13;20.90;52.30
66708;DHT22;53622;0.000;0.000;2023-04-01T02:42:42;20.90;52.30
66708;DHT22;53622;0.000;0.000;2023-04-01T02:45:13;20.90;52.30
66708;DHT22;53622;0.000;0.000;2023-04-01T02:47:42;20.90;52.30
66708;DHT22;53622;0.000;0.000;2023-04-01T02:50:12;20.90;52.30
66708;DHT22;53622;0.000;0.000;2023-04-01T02:52:43;20.80;52.20
66708;DHT22;53622;0.000;0.000;2023-04-01T02:55:13;20.80;52.20
66708;DHT22;53622;0.000;0.000;2023-04-01T02:57:42;20.80;52.20
66708;DHT22;53622;0.000;0.000;2023-04-01T03:00:13;20.80;52.30
66708;DHT22;53622;0.000;0.000;2023-04-01T03:02:42;20.80;52.20
66708;DHT22;53622;0.000;0.000;2023-04-01T03:05:12;20.80;52.20
66708;DHT22;53622;0.000;0.000;2023-04-01T03:10:13;20.80;52.20
66708;DHT22;53622;0.000;0.000;2023-04-01T03:12:42;20.80;52.20
66708;DHT22;53622;0.000;0.000;2023-04-01T03:15:13;20.80;52.30
66708;DHT22;53622;0.000;0.000;2023-04-01T03:17:43;20.80;52.30
66708;DHT22;53622;0.000;0.000;2023-04-01T03:20:14;20.80;52.20
66708;DHT22;53622;0.000;0.000;2023-04-01T03:22:44;20.80;52.20
66708;DHT22;53622;0.000;0.000;2023-04-01T03:25:15;20.80;52.20
66708;DHT22;53622;0.000;0.000;2023-04-01T03:27:44;20.80;52.20
66708;DHT22;53622;0.000;0.000;2023-04-01T03:30:13;20.80;52.20
66708;DHT22;53622;0.000;0.000;2023-04-01T03:32:49;20.70;52.10
66708;DHT22;53622;0.000;0.000;2023-04-01T03:35:19;20.70;52.20
66708;DHT22;53622;0.000;0.000;2023-04-01T03:37:48;20.70;52.20
66708;DHT22;53622;0.000;0.000;2023-04-01T03:40:20;20.70;52.20
66708;DHT22;53622;0.000;0.000;2023-04-01T03:42:50;20.70;52.20
66708;DHT22;53622;0.000;0.000;2023-04-01T03:45:19;20.70;52.10
66708;DHT22;53622;0.000;0.000;2023-04-01T03:47:49;20.70;52.20
66708;DHT22;53622;0.000;0.000;2023-04-01T03:50:19;20.70;52.20
66708;DHT22;53622;0.000;0.000;2023-04-01T03:52:48;20.70;52.20
66708;DHT22;53622;0.000;0.000;2023-04-01T03:55:17;20.70;52.20
66708;DHT22;53622;0.000;0.000;2023-04-01T03:57:49;20.70;52.20
66708;DHT22;53622;0.000;0.000;2023-04-01T04:00:19;20.70;52.20
66708;DHT22;53622;0.000;0.000;2023-04-01T04:02:53;20.70;52.80
66708;DHT22;53622;0.000;0.000;2023-04-01T04:05:30;20.70;52.20
66708;DHT22;53622;0.000;0.000;2023-04-01T04:08:00;20.70;52.20
66708;DHT22;53622;0.000;0.000;2023-04-01T04:10:30;20.70;52.20
66708;DHT22;53622;0.000;0.000;2023-04-01T04:13:00;20.70;52.20
66708;DHT22;53622;0.000;0.000;2023-04-01T04:15:31;20.70;52.20
66708;DHT22;53622;0.000;0.000;2023-04-01T04:18:01;20.70;52.20
66708;DHT22;53622;0.000;0.000;2023-04-01T04:20:30;20.70;52.20
66708;DHT22;53622;0.000;0.000;2023-04-01T04:23:00;20.60;52.20
66708;DHT22;53622;0.000;0.000;2023-04-01T04:25:29;20.60;52.20
66708;DHT22;53622;0.000;0.000;2023-04-01T04:28:00;20.60;52.20
66708;DHT22;53622;0.000;0.000;2023-04-01T04:30:30;20.60;52.20
66708;DHT22;53622;0.000;0.000;2023-04-01T04:32:59;20.60;52.20
66708;DHT22;53622;0.000;0.000;2023-04-01T04:35:28;20.60;52.20
66708;DHT22;53622;0.000;0.000;2023-04-01T04:37:58;20.60;52.10
66708;DHT22;53622;0.000;0.000;2023-04-01T04:40:27;20.60;52.20
66708;DHT22;53622;0.000;0.000;2023-04-01T04:42:56;20.60;52.10
66708;DHT22;53622;0.000;0.000;2023-04-01T04:45:27;20.60;52.20
66708;DHT22;53622;0.000;0.000;2023-04-01T04:47:56;20.60;52.20
66708;DHT22;53622;0.000;0.000;2023-04-01T04:50:26;20.60;52.20
66708;DHT22;53622;0.000;0.000;2023-04-01T04:52:55;20.60;52.10
66708;DHT22;53622;0.000;0.000;2023-04-01T04:55:24;20.60;52.10
66708;DHT22;53622;0.000;0.000;2023-04-01T04:58:14;20.60;52.10
66708;DHT22;53622;0.000;0.000;2023-04-01T05:00:46;20.60;52.20
66708;DHT22;53622;0.000;0.000;2023-04-01T05:03:23;20.60;52.20
66708;DHT22;53622;0.000;0.000;2023-04-01T05:05:53;20.60;52.20
66708;DHT22;53622;0.000;0.000;2023-04-01T05:08:23;20.60;52.20
66708;DHT22;53622;0.000;0.000;2023-04-01T05:10:52;20.60;52.20
66708;DHT22;53622;0.000;0.000;2023-04-01T05:13:21;20.60;52.20
66708;DHT22;53622;0.000;0.000;2023-04-01T05:15:53;20.60;52.20
66708;DHT22;53622;0.000;0.000;2023-04-01T05:18:22;20.60;52.20
66708;DHT22;53622;0.000;0.000;2023-04-01T05:20:53;20.60;52.80
66708;DHT22;53622;0.000;0.000;2023-04-01T05:23:22;20.60;52.20
66708;DHT22;53622;0.000;0.000;2023-04-01T05:25:52;20.60;52.20
66708;DHT22;53622;0.000;0.000;2023-04-01T05:28:22;20.60;52.10
66708;DHT22;53622;0.000;0.000;2023-04-01T05:30:53;20.60;52.30
66708;DHT22;53622;0.000;0.000;2023-04-01T05:33:30;20.60;52.20
66708;DHT22;53622;0.000;0.000;2023-04-01T05:36:06;20.60;52.20
66708;DHT22;53622;0.000;0.000;2023-04-01T05:38:36;20.60;52.30
66708;DHT22;53622;0.000;0.000;2023-04-01T05:41:07;20.60;52.40
66708;DHT22;53622;0.000;0.000;2023-04-01T05:43:41;20.70;52.60
66708;DHT22;53622;0.000;0.000;2023-04-01T05:46:31;20.80;52.50
66708;DHT22;53622;0.000;0.000;2023-04-01T05:49:11;21.00;79.30
66708;DHT22;53622;0.000;0.000;2023-04-01T05:51:40;21.10;52.20
66708;DHT22;53622;0.000;0.000;2023-04-01T05:54:10;21.20;52.00
66708;DHT22;53622;0.000;0.000;2023-04-01T05:56:47;21.20;51.70
66708;DHT22;53622;0.000;0.000;2023-04-01T05:59:18;21.30;51.50
66708;DHT22;53622;0.000;0.000;2023-04-01T06:01:49;21.40;51.40
66708;DHT22;53622;0.000;0.000;2023-04-01T06:04:20;21.50;51.30
66708;DHT22;53622;0.000;0.000;2023-04-01T06:06:50;21.50;51.40
66708;DHT22;53622;0.000;0.000;2023-04-01T06:09:26;21.60;51.60
66708;DHT22;53622;0.000;0.000;2023-04-01T06:12:16;21.60;52.00
66708;DHT22;53622;0.000;0.000;2023-04-01T06:15:03;21.60;52.00
66708;DHT22;53622;0.000;0.000;2023-04-01T06:17:56;21.60;52.60
66708;DHT22;53622;0.000;0.000;2023-04-01T06:20:34;21.60;52.70
66708;DHT22;53622;0.000;0.000;2023-04-01T06:23:31;21.70;53.20
66708;DHT22;53622;0.000;0.000;2023-04-01T06:26:15;21.80;53.40
66708;DHT22;53622;0.000;0.000;2023-04-01T06:29:05;21.90;53.80
66708;DHT22;53622;0.000;0.000;2023-04-01T06:32:00;21.90;54.20
66708;DHT22;53622;0.000;0.000;2023-04-01T06:34:59;22.00;54.50
66708;DHT22;53622;0.000;0.000;2023-04-01T06:41:04;22.10;54.30
66708;DHT22;53622;0.000;0.000;2023-04-01T06:43:46;22.10;54.10
66708;DHT22;53622;0.000;0.000;2023-04-01T06:46:57;22.00;54.10
66708;DHT22;53622;0.000;0.000;2023-04-01T06:49:52;22.00;54.00
66708;DHT22;53622;0.000;0.000;2023-04-01T06:52:50;22.10;53.80
66708;DHT22;53622;0.000;0.000;2023-04-01T06:55:43;22.10;53.50
66708;DHT22;53622;0.000;0.000;2023-04-01T06:58:41;22.20;53.40
66708;DHT22;53622;0.000;0.000;2023-04-01T07:01:15;22.20;53.30
66708;DHT22;53622;0.000;0.000;2023-04-01T07:03:51;22.20;53.10
66708;DHT22;53622;0.000;0.000;2023-04-01T07:06:26;22.20;51.80
66708;DHT22;53622;0.000;0.000;2023-04-01T07:09:02;22.10;51.40
66708;DHT22;53622;0.000;0.000;2023-04-01T07:11:54;22.00;51.30
66708;DHT22;53622;0.000;0.000;2023-04-01T07:14:48;21.90;51.30
66708;DHT22;53622;0.000;0.000;2023-04-01T07:17:22;21.90;51.50
66708;DHT22;53622;0.000;0.000;2023-04-01T07:19:56;21.80;51.60
66708;DHT22;53622;0.000;0.000;2023-04-01T07:22:31;21.80;51.60
66708;DHT22;53622;0.000;0.000;2023-04-01T07:25:25;21.70;51.70
66708;DHT22;53622;0.000;0.000;2023-04-01T07:28:16;21.70;51.40
66708;DHT22;53622;0.000;0.000;2023-04-01T07:31:03;21.60;50.90
66708;DHT22;53622;0.000;0.000;2023-04-01T07:33:41;21.60;51.20
66708;DHT22;53622;0.000;0.000;2023-04-01T07:36:17;21.60;51.60
66708;DHT22;53622;0.000;0.000;2023-04-01T07:38:56;21.60;51.90
66708;DHT22;53622;0.000;0.000;2023-04-01T07:41:53;21.60;52.00
66708;DHT22;53622;0.000;0.000;2023-04-01T07:44:33;21.60;51.60
66708;DHT22;53622;0.000;0.000;2023-04-01T07:47:15;21.60;51.00
66708;DHT22;53622;0.000;0.000;2023-04-01T07:49:56;21.50;51.60
66708;DHT22;53622;0.000;0.000;2023-04-01T07:52:38;21.50;50.90
66708;DHT22;53622;0.000;0.000;2023-04-01T07:55:24;21.40;51.00
66708;DHT22;53622;0.000;0.000;2023-04-01T07:58:04;21.40;50.90
66708;DHT22;53622;0.000;0.000;2023-04-01T08:00:44;21.30;51.00
66708;DHT22;53622;0.000;0.000;2023-04-01T08:03:43;21.30;51.30
66708;DHT22;53622;0.000;0.000;2023-04-01T08:06:25;21.30;51.60
66708;DHT22;53622;0.000;0.000;2023-04-01T08:09:04;21.30;51.70
66708;DHT22;53622;0.000;0.000;2023-04-01T08:12:01;21.30;51.80
66708;DHT22;53622;0.000;0.000;2023-04-01T08:15:00;21.30;51.90
66708;DHT22;53622;0.000;0.000;2023-04-01T08:18:09;21.30;52.00
66708;DHT22;53622;0.000;0.000;2023-04-01T08:20:44;21.20;52.00
66708;DHT22;53622;0.000;0.000;2023-04-01T08:23:16;21.20;52.10
66708;DHT22;53622;0.000;0.000;2023-04-01T08:25:52;21.20;52.10
66708;DHT22;53622;0.000;0.000;2023-04-01T08:28:30;21.20;52.10
66708;DHT22;53622;0.000;0.000;2023-04-01T08:31:10;21.20;52.40
66708;DHT22;53622;0.000;0.000;2023-04-01T08:33:46;21.20;52.20
66708;DHT22;53622;0.000;0.000;2023-04-01T08:36:19;21.20;52.20
66708;DHT22;53622;0.000;0.000;2023-04-01T08:39:05;21.20;52.20
66708;DHT22;53622;0.000;0.000;2023-04-01T08:44:57;21.20;52.20
66708;DHT22;53622;0.000;0.000;2023-04-01T08:47:56;21.20;52.20
66708;DHT22;53622;0.000;0.000;2023-04-01T08:51:05;21.20;52.20
66708;DHT22;53622;0.000;0.000;2023-04-01T08:53:58;21.10;52.20
66708;DHT22;53622;0.000;0.000;2023-04-01T08:56:36;21.10;52.20
66708;DHT22;53622;0.000;0.000;2023-04-01T08:59:28;21.10;52.20
66708;DHT22;53622;0.000;0.000;2023-04-01T09:08:47;21.10;52.30
66708;DHT22;53622;0.000;0.000;2023-04-01T09:11:28;21.10;52.30
66708;DHT22;53622;0.000;0.000;2023-04-01T09:14:38;21.10;52.30
66708;DHT22;53622;0.000;0.000;2023-04-01T09:18:00;21.10;52.30
66708;DHT22;53622;0.000;0.000;2023-04-01T09:21:08;21.10;52.30
66708;DHT22;53622;0.000;0.000;2023-04-01T09:24:17;21.10;52.30
66708;DHT22;53622;0.000;0.000;2023-04-01T09:27:19;21.00;52.30
66708;DHT22;53622;0.000;0.000;2023-04-01T09:30:13;21.00;52.30
66708;DHT22;53622;0.000;0.000;2023-04-01T09:36:04;21.00;52.20
66708;DHT22;53622;0.000;0.000;2023-04-01T09:38:47;21.00;52.30
66708;DHT22;53622;0.000;0.000;2023-04-01T09:41:26;21.00;52.30
66708;DHT22;53622;0.000;0.000;2023-04-01T09:44:13;21.00;52.30
66708;DHT22;53622;0.000;0.000;2023-04-01T09:47:21;21.00;52.20
66708;DHT22;53622;0.000;0.000;2023-04-01T09:50:17;21.00;52.30
66708;DHT22;53622;0.000;0.000;2023-04-01T09:53:00;21.00;52.20
66708;DHT22;53622;0.000;0.000;2023-04-01T09:56:01;21.00;52.20
66708;DHT22;53622;0.000;0.000;2023-04-01T09:59:19;21.00;52.20
66708;DHT22;53622;0.000;0.000;2023-04-01T10:02:44;21.00;52.20
66708;DHT22;53622;0.000;0.000;2023-04-01T10:05:49;20.90;52.20
66708;DHT22;53622;0.000;0.000;2023-04-01T10:08:34;20.90;52.20
66708;DHT22;53622;0.000;0.000;2023-04-01T10:17:47;20.90;52.20
66708;DHT22;53622;0.000;0.000;2023-04-01T10:39:35;20.90;52.20
66708;DHT22;53622;0.000;0.000;2023-04-01T10:42:49;20.90;52.20
66708;DHT22;53622;0.000;0.000;2023-04-01T11:02:43;20.80;52.20
66708;DHT22;53622;0.000;0.000;2023-04-01T11:15:36;20.80;52.20
66708;DHT22;53622;0.000;0.000;2023-04-01T11:21:51;20.80;52.20
66708;DHT22;53622;0.000;0.000;2023-04-01T11:25:06;20.80;52.20
66708;DHT22;53622;0.000;0.000;2023-04-01T11:28:02;20.80;52.30
66708;DHT22;53622;0.000;0.000;2023-04-01T11:30:49;20.80;52.20
66708;DHT22;53622;0.000;0.000;2023-04-01T11:33:26;20.80;52.20
66708;DHT22;53622;0.000;0.000;2023-04-01T11:36:05;20.80;52.20
66708;DHT22;53622;0.000;0.000;2023-04-01T11:38:57;20.80;52.10
66708;DHT22;53622;0.000;0.000;2023-04-01T11:41:54;20.80;52.10
66708;DHT22;53622;0.000;0.000;2023-04-01T11:44:51;20.80;52.10
66708;DHT22;53622;0.000;0.000;2023-04-01T11:47:52;20.80;52.10
66708;DHT22;53622;0.000;0.000;2023-04-01T11:50:34;20.80;52.10
66708;DHT22;53622;0.000;0.000;2023-04-01T11:53:21;20.80;52.10
66708;DHT22;53622;0.000;0.000;2023-04-01T11:55:59;20.80;52.10
66708;DHT22;53622;0.000;0.000;2023-04-01T11:59:06;20.80;52.10
66708;DHT22;53622;0.000;0.000;2023-04-01T12:01:51;20.80;52.10
66708;DHT22;53622;0.000;0.000;2023-04-01T12:04:51;20.80;52.10
66708;DHT22;53622;0.000;0.000;2023-04-01T12:07:40;20.80;52.10
66708;DHT22;53622;0.000;0.000;2023-04-01T12:10:17;20.80;52.10
66708;DHT22;53622;0.000;0.000;2023-04-01T12:12:54;20.80;52.10
66708;DHT22;53622;0.000;0.000;2023-04-01T12:15:34;20.80;52.20
66708;DHT22;53622;0.000;0.000;2023-04-01T12:18:13;20.80;52.10
66708;DHT22;53622;0.000;0.000;2023-04-01T12:20:50;20.80;52.10
66708;DHT22;53622;0.000;0.000;2023-04-01T12:23:41;20.80;52.10
66708;DHT22;53622;0.000;0.000;2023-04-01T12:29:44;20.80;52.10
66708;DHT22;53622;0.000;0.000;2023-04-01T12:32:25;20.80;52.10
66708;DHT22;53622;0.000;0.000;2023-04-01T12:35:22;20.80;52.10
66708;DHT22;53622;0.000;0.000;2023-04-01T12:38:16;20.80;52.10
66708;DHT22;53622;0.000;0.000;2023-04-01T12:41:02;20.80;52.10
66708;DHT22;53622;0.000;0.000;2023-04-01T12:46:29;20.70;52.10
66708;DHT22;53622;0.000;0.000;2023-04-01T12:49:26;20.80;52.10
66708;DHT22;53622;0.000;0.000;2023-04-01T12:52:10;20.80;52.10
66708;DHT22;53622;0.000;0.000;2023-04-01T13:04:08;20.70;52.10
66708;DHT22;53622;0.000;0.000;2023-04-01T13:06:53;20.70;52.10
66708;DHT22;53622;0.000;0.000;2023-04-01T13:09:37;20.70;52.10
66708;DHT22;53622;0.000;0.000;2023-04-01T13:12:29;20.70;52.10
66708;DHT22;53622;0.000;0.000;2023-04-01T13:15:16;20.70;52.10
66708;DHT22;53622;0.000;0.000;2023-04-01T13:17:54;20.70;52.10
66708;DHT22;53622;0.000;0.000;2023-04-01T13:20:36;20.70;52.10
66708;DHT22;53622;0.000;0.000;2023-04-01T13:23:20;20.70;52.10
66708;DHT22;53622;0.000;0.000;2023-04-01T13:25:58;20.70;52.10
66708;DHT22;53622;0.000;0.000;2023-04-01T13:28:47;20.70;52.10
66708;DHT22;53622;0.000;0.000;2023-04-01T13:31:30;20.70;52.10
66708;DHT22;53622;0.000;0.000;2023-04-01T13:34:16;20.70;52.20
66708;DHT22;53622;0.000;0.000;2023-04-01T13:36:56;20.70;52.20
66708;DHT22;53622;0.000;0.000;2023-04-01T13:42:31;20.70;52.30
66708;DHT22;53622;0.000;0.000;2023-04-01T13:45:09;20.70;52.30
66708;DHT22;53622;0.000;0.000;2023-04-01T13:50:59;20.70;52.30
66708;DHT22;53622;0.000;0.000;2023-04-01T13:53:46;20.70;52.30
66708;DHT22;53622;0.000;0.000;2023-04-01T13:56:37;20.70;52.30
66708;DHT22;53622;0.000;0.000;2023-04-01T13:59:38;20.70;52.30
66708;DHT22;53622;0.000;0.000;2023-04-01T14:02:30;20.70;52.30
66708;DHT22;53622;0.000;0.000;2023-04-01T14:05:20;20.70;52.40
66708;DHT22;53622;0.000;0.000;2023-04-01T14:08:14;20.60;52.40
66708;DHT22;53622;0.000;0.000;2023-04-01T14:10:55;20.60;52.40
66708;DHT22;53622;0.000;0.000;2023-04-01T14:13:34;20.60;52.40
66708;DHT22;53622;0.000;0.000;2023-04-01T14:16:40;20.70;52.40
66708;DHT22;53622;0.000;0.000;2023-04-01T14:19:27;20.70;52.40
66708;DHT22;53622;0.000;0.000;2023-04-01T14:22:08;20.70;52.40
66708;DHT22;53622;0.000;0.000;2023-04-01T14:24:58;20.70;52.50
66708;DHT22;53622;0.000;0.000;2023-04-01T14:27:44;20.60;52.40
66708;DHT22;53622;0.000;0.000;2023-04-01T14:30:32;20.60;52.40
66708;DHT22;53622;0.000;0.000;2023-04-01T14:33:15;20.60;52.40
66708;DHT22;53622;0.000;0.000;2023-04-01T14:35:57;20.60;52.40
66708;DHT22;53622;0.000;0.000;2023-04-01T14:38:42;20.60;52.40
66708;DHT22;53622;0.000;0.000;2023-04-01T14:41:28;20.60;52.50
66708;DHT22;53622;0.000;0.000;2023-04-01T14:47:28;20.60;52.50
66708;DHT22;53622;0.000;0.000;2023-04-01T14:50:06;20.60;52.50
66708;DHT22;53622;0.000;0.000;2023-04-01T14:52:40;20.60;52.50
66708;DHT22;53622;0.000;0.000;2023-04-01T14:55:36;20.60;52.60
66708;DHT22;53622;0.000;0.000;2023-04-01T14:58:16;20.60;52.50
66708;DHT22;53622;0.000;0.000;2023-04-01T15:00:55;20.60;52.50
66708;DHT22;53622;0.000;0.000;2023-04-01T15:03:30;20.60;52.50
66708;DHT22;53622;0.000;0.000;2023-04-01T15:06:26;20.60;52.60
66708;DHT22;53622;0.000;0.000;2023-04-01T15:08:58;20.60;52.50
66708;DHT22;53622;0.000;0.000;2023-04-01T15:11:37;20.60;52.50
66708;DHT22;53622;0.000;0.000;2023-04-01T15:14:27;20.60;52.60
66708;DHT22;53622;0.000;0.000;2023-04-01T15:17:19;20.60;52.60
66708;DHT22;53622;0.000;0.000;2023-04-01T15:20:08;20.60;52.60
66708;DHT22;53622;0.000;0.000;2023-04-01T15:22:53;20.60;52.60
66708;DHT22;53622;0.000;0.000;2023-04-01T15:25:46;20.60;52.60
66708;DHT22;53622;0.000;0.000;2023-04-01T15:28:28;20.60;52.60
66708;DHT22;53622;0.000;0.000;2023-04-01T15:31:05;20.50;52.50
66708;DHT22;53622;0.000;0.000;2023-04-01T15:34:00;20.60;52.60
66708;DHT22;53622;0.000;0.000;2023-04-01T15:36:37;20.60;52.60
66708;DHT22;53622;0.000;0.000;2023-04-01T15:39:14;20.60;52.60
66708;DHT22;53622;0.000;0.000;2023-04-01T15:41:55;20.60;52.60
66708;DHT22;53622;0.000;0.000;2023-04-01T15:44:50;20.50;52.50
66708;DHT22;53622;0.000;0.000;2023-04-01T15:47:37;20.60;52.60
66708;DHT22;53622;0.000;0.000;2023-04-01T15:50:31;20.50;52.60
66708;DHT22;53622;0.000;0.000;2023-04-01T15:53:22;20.50;52.50
66708;DHT22;53622;0.000;0.000;2023-04-01T15:55:56;20.50;52.60
66708;DHT22;53622;0.000;0.000;2023-04-01T15:58:40;20.50;52.60
66708;DHT22;53622;0.000;0.000;2023-04-01T16:01:26;20.50;52.60
66708;DHT22;53622;0.000;0.000;2023-04-01T16:04:11;20.50;52.60
66708;DHT22;53622;0.000;0.000;2023-04-01T16:06:56;20.50;52.60
66708;DHT22;53622;0.000;0.000;2023-04-01T16:09:59;20.50;52.60
66708;DHT22;53622;0.000;0.000;2023-04-01T16:12:44;20.50;52.60
66708;DHT22;53622;0.000;0.000;2023-04-01T16:15:24;20.50;52.60
66708;DHT22;53622;0.000;0.000;2023-04-01T16:18:21;20.50;52.60
66708;DHT22;53622;0.000;0.000;2023-04-01T16:21:01;20.50;52.60
66708;DHT22;53622;0.000;0.000;2023-04-01T16:23:37;20.50;52.50
66708;DHT22;53622;0.000;0.000;2023-04-01T16:26:13;20.50;52.60
66708;DHT22;53622;0.000;0.000;2023-04-01T16:28:52;20.50;52.60
66708;DHT22;53622;0.000;0.000;2023-04-01T16:31:35;20.50;52.50
66708;DHT22;53622;0.000;0.000;2023-04-01T16:34:10;20.50;52.60
66708;DHT22;53622;0.000;0.000;2023-04-01T16:36:48;20.50;52.60
66708;DHT22;53622;0.000;0.000;2023-04-01T16:39:27;20.50;52.60
66708;DHT22;53622;0.000;0.000;2023-04-01T16:42:13;20.50;52.60
66708;DHT22;53622;0.000;0.000;2023-04-01T16:44:50;20.40;52.50
66708;DHT22;53622;0.000;0.000;2023-04-01T16:47:29;20.50;52.60
66708;DHT22;53622;0.000;0.000;2023-04-01T16:50:05;20.40;52.50
66708;DHT22;53622;0.000;0.000;2023-04-01T16:52:54;20.40;52.50
66708;DHT22;53622;0.000;0.000;2023-04-01T16:55:35;20.50;52.50
66708;DHT22;53622;0.000;0.000;2023-04-01T16:58:18;20.50;52.60
66708;DHT22;53622;0.000;0.000;2023-04-01T17:00:49;20.40;52.50
66708;DHT22;53622;0.000;0.000;2023-04-01T17:03:25;20.40;52.50
66708;DHT22;53622;0.000;0.000;2023-04-01T17:06:12;20.40;52.50
66708;DHT22;53622;0.000;0.000;2023-04-01T17:09:07;20.40;52.40
66708;DHT22;53622;0.000;0.000;2023-04-01T17:11:47;20.40;52.50
66708;DHT22;53622;0.000;0.000;2023-04-01T17:14:23;20.40;52.50
66708;DHT22;53622;0.000;0.000;2023-04-01T17:17:06;20.40;52.50
66708;DHT22;53622;0.000;0.000;2023-04-01T17:20:01;20.40;52.50
66708;DHT22;53622;0.000;0.000;2023-04-01T17:22:40;20.40;52.40
66708;DHT22;53622;0.000;0.000;2023-04-01T17:25:26;20.40;52.40
66708;DHT22;53622;0.000;0.000;2023-04-01T17:28:03;20.40;52.40
66708;DHT22;53622;0.000;0.000;2023-04-01T17:30:37;20.40;52.40
66708;DHT22;53622;0.000;0.000;2023-04-01T17:36:09;20.40;52.50
66708;DHT22;53622;0.000;0.000;2023-04-01T17:38:54;20.40;52.40
66708;DHT22;53622;0.000;0.000;2023-04-01T17:41:36;20.40;52.50
66708;DHT22;53622;0.000;0.000;2023-04-01T17:44:17;20.40;52.50
66708;DHT22;53622;0.000;0.000;2023-04-01T17:47:11;20.40;52.50
66708;DHT22;53622;0.000;0.000;2023-04-01T17:49:52;20.40;52.50
66708;DHT22;53622;0.000;0.000;2023-04-01T17:52:27;20.40;52.50
66708;DHT22;53622;0.000;0.000;2023-04-01T17:55:14;20.40;52.50
66708;DHT22;53622;0.000;0.000;2023-04-01T17:57:48;20.40;52.50
66708;DHT22;53622;0.000;0.000;2023-04-01T18:00:26;20.40;52.50
66708;DHT22;53622;0.000;0.000;2023-04-01T18:03:24;20.40;52.50
66708;DHT22;53622;0.000;0.000;2023-04-01T18:06:03;20.30;52.40
66708;DHT22;53622;0.000;0.000;2023-04-01T18:08:47;20.30;52.50
66708;DHT22;53622;0.000;0.000;2023-04-01T18:11:31;20.40;52.50
66708;DHT22;53622;0.000;0.000;2023-04-01T18:14:40;20.30;52.50
66708;DHT22;53622;0.000;0.000;2023-04-01T18:17:24;20.40;52.50
66708;DHT22;53622;0.000;0.000;2023-04-01T18:20:08;20.30;52.50
66708;DHT22;53622;0.000;0.000;2023-04-01T18:22:45;20.30;52.50
66708;DHT22;53622;0.000;0.000;2023-04-01T18:25:21;20.30;52.50
66708;DHT22;53622;0.000;0.000;2023-04-01T18:28:11;20.30;52.50
66708;DHT22;53622;0.000;0.000;2023-04-01T18:30:44;20.30;52.50
66708;DHT22;53622;0.000;0.000;2023-04-01T18:33:23;20.30;52.50
66708;DHT22;53622;0.000;0.000;2023-04-01T18:35:58;20.30;52.50
66708;DHT22;53622;0.000;0.000;2023-04-01T18:38:35;20.30;52.50
66708;DHT22;53622;0.000;0.000;2023-04-01T18:41:22;20.30;52.50
66708;DHT22;53622;0.000;0.000;2023-04-01T18:44:04;20.30;52.50
66708;DHT22;53622;0.000;0.000;2023-04-01T18:46:41;20.30;52.40
66708;DHT22;53622;0.000;0.000;2023-04-01T18:49:20;20.30;52.50
66708;DHT22;53622;0.000;0.000;2023-04-01T18:51:52;20.30;52.50
66708;DHT22;53622;0.000;0.000;2023-04-01T18:54:29;20.30;52.50
66708;DHT22;53622;0.000;0.000;2023-04-01T18:57:04;20.30;52.50
66708;DHT22;53622;0.000;0.000;2023-04-01T18:59:40;20.30;52.50